This is the latest recevied weather packets stored in our database for station/object N3LF. If no packets are shown the sender has not sent any weather packets the latest 10 day(s).
| Time | Temp. | Humidity | Pressure | Rain* | Wind** | Luminosity | Snow |
|---|---|---|---|---|---|---|---|
| 1788565279 | 34.44° C | 62% | 1016.1 hPa | 0 mm | - | 26 W/m² | - |
| 1788564974 | 35.56° C | 58% | 1015.9 hPa | 0 mm | - | 30 W/m² | - |
| 1788564670 | 36.11° C | 57% | 1015.9 hPa | 0 mm | - | 35 W/m² | - |
| 1788564367 | 36.11° C | 55% | 1015.8 hPa | 0 mm | - | 41 W/m² | - |
| 1788564063 | 35.56° C | 56% | 1015.6 hPa | 0 mm | - | 48 W/m² | - |
| 1788563758 | 36.11° C | 55% | 1015.6 hPa | 0 mm | - | 53 W/m² | - |
| 1788563458 | 36.67° C | 53% | 1015.7 hPa | 0 mm | - | 59 W/m² | - |
| 1788563157 | 36.67° C | 52% | 1015.6 hPa | 0 mm | - | 63 W/m² | - |
| 1788562853 | 36.67° C | 51% | 1015.6 hPa | 0 mm | - | 74 W/m² | - |
| 1788562551 | 37.22° C | 50% | 1015.8 hPa | 0 mm | - | 82 W/m² | - |
| 1788562251 | 37.22° C | 50% | 1015.5 hPa | 0 mm | - | 93 W/m² | - |
| 1788561946 | 37.22° C | 47% | 1015.5 hPa | 0 mm | - | 102 W/m² | - |
| 1788561646 | 37.22° C | 49% | 1015.4 hPa | 0 mm | - | 111 W/m² | - |
| 1788561345 | 38.33° C | 48% | 1015.6 hPa | 0 mm | - | 123 W/m² | - |
| 1788561041 | 37.78° C | 51% | 1015.5 hPa | 0 mm | - | 134 W/m² | - |
| 1788560736 | 38.89° C | 48% | 1015.8 hPa | 0 mm | - | 146 W/m² | - |
| 1788560432 | 39.44° C | 47% | 1015.7 hPa | 0 mm | - | 156 W/m² | - |
| 1788560126 | 39.44° C | 45% | 1015.6 hPa | 0 mm | - | 168 W/m² | - |
| 1788559821 | 38.89° C | 47% | 1015.6 hPa | 0 mm | - | 184 W/m² | - |
| 1788559520 | 38.33° C | 47% | 1015.8 hPa | 0 mm | - | 193 W/m² | - |
| 1788559216 | 38.33° C | 48% | 1015.9 hPa | 0 mm | - | 205 W/m² | - |
| 1788558911 | 37.78° C | 50% | 1015.9 hPa | 0 mm | - | 221 W/m² | - |
| 1788558606 | 38.33° C | 52% | 1015.7 hPa | 0 mm | - | 230 W/m² | - |
| 1788558302 | 38.33° C | 48% | 1015.9 hPa | 0 mm | - | 246 W/m² | - |
| 1788558002 | 38.33° C | 50% | 1015.9 hPa | 0 mm | - | 260 W/m² | - |
* Rain latest hour (hover to see other rain measurements)
** Current wind speed in m/s (hover to see current wind gust speed)